Dost 1 — TCPI — position and weather

sailwx.info

Track history (hours):
 
Tides and Currents Weather Stations Pressure Air Temp Water Temp Dewpoint Dewpoint Depression Visibility Wind Speed Wind Dir Waves Ship Positions

Dost 1

Last reported at 2015-May-25 11:27 UTC. Time now 2015-May-25 13:30 UTC.
Position N 31°23' E 030°05'.

Length 115 m; draft 6.7 m.

Type: Cargo ship. MMSI: 271000303.

Date/timePositionNaut miles runAvg speedWind from/ knotsBaromVisibWave heightAir tempDewpointWater temp
2015-May-25 11:27N 31°23' E 030°05'0 0.0
2015-May-25 09:29N 31°23' E 030°05'0 0.0
2015-May-25 08:29N 31°23' E 030°05'0 0.0
2015-May-25 07:33N 31°23' E 030°05'0 0.0
2015-May-25 03:18N 31°23' E 030°05'0 0.0
2015-May-25 02:33N 31°23' E 030°05'147 7.7
2015-May-24 07:24N 33°36' E 028°49'14611.3
2015-May-23 18:32N 35°47' E 027°32'1311.3
2015-May-23 17:23N 35°59' E 027°26'2210.8
2015-May-23 15:21N 36°17' E 027°11'911.2
2015-May-23 14:33N 36°22' E 027°01'1111.0
2015-May-23 13:33N 36°28' E 026°50'2311.3
2015-May-23 11:33N 36°44' E 026°30'1111.5
2015-May-23 10:33N 36°52' E 026°20'1311.3
2015-May-23 09:26N 37°02' E 026°10'1311.3
2015-May-23 08:16N 37°15' E 026°06'811.6
2015-May-23 07:33N 37°22' E 026°02'1111.3
2015-May-23 06:33N 37°30' E 025°52'1111.0
2015-May-23 05:32N 37°41' E 025°49'274 6.2
2015-May-21 09:29N 41°22' E 029°20'1010.4
2015-May-21 08:33N 41°24' E 029°32'22410.4
2015-May-20 11:06N 42°10' E 034°26'712.2
2015-May-20 10:33N 42°11' E 034°35'1312.0
2015-May-20 09:31N 42°16' E 034°50'1511.7
2015-May-20 08:14N 42°23' E 035°08'811.6
2015-May-20 07:31N 42°28' E 035°17'2311.6
2015-May-20 05:33N 42°39' E 035°44'15111.7
2015-May-19 16:33N 43°56' E 038°43'1110.7
2015-May-19 15:33N 44°01' E 038°56'8 7.3
2015-May-19 14:31N 44°06' E 039°04'0 0.0
2015-May-19 13:31N 44°06' E 039°04'0 0.0
2015-May-19 12:31N 44°06' E 039°04'0 0.0
2015-May-19 11:33N 44°06' E 039°04'0 0.0
2015-May-19 10:33N 44°06' E 039°04'0 0.0
2015-May-19 09:29N 44°06' E 039°04'0 0.0
2015-May-19 08:32N 44°06' E 039°04'0 0.0
2015-May-19 07:31N 44°06' E 039°04'0 0.0
2015-May-19 06:31N 44°06' E 039°04'0 0.0
2015-May-19 05:31N 44°06' E 039°04'0 0.0
2015-May-19 04:30N 44°06' E 039°04'0 0.0
2015-May-19 03:33N 44°06' E 039°04'0 0.0
2015-May-19 02:32N 44°06' E 039°04'0 0.0
2015-May-19 01:32N 44°06' E 039°04'0 0.0
2015-May-19 00:31N 44°06' E 039°04'0 0.0
2015-May-18 23:31N 44°06' E 039°04'0 0.0
2015-May-18 22:31N 44°06' E 039°04'0 0.0
2015-May-18 21:33N 44°06' E 039°04'0 0.0
2015-May-18 20:33N 44°06' E 039°04'0 0.0
2015-May-18 19:32N 44°06' E 039°04'0 0.0
2015-May-18 18:32N 44°06' E 039°04'0 0.0
2015-May-18 17:31N 44°06' E 039°04'0 0.0
2015-May-18 16:31N 44°06' E 039°04'0 0.0
2015-May-18 15:31N 44°06' E 039°04'0 0.0
2015-May-18 14:33N 44°06' E 039°04'0 0.0
2015-May-18 13:30N 44°06' E 039°04'0 0.2
2015-May-18 12:34N 44°05' E 039°04'2 2.0
2015-May-18 11:33N 44°04' E 039°05'0 0.1
2015-May-18 10:32N 44°04' E 039°05'0 0.0
2015-May-18 09:32N 44°04' E 039°05'0 0.0
2015-May-18 08:32N 44°04' E 039°05'0 0.0
2015-May-18 07:31N 44°04' E 039°05'0 0.0
2015-May-18 06:31N 44°04' E 039°05'0 0.0
2015-May-18 05:33N 44°04' E 039°05'0 0.0
2015-May-18 04:33N 44°04' E 039°05'0 0.0
2015-May-18 03:32N 44°04' E 039°05'0 0.0
2015-May-18 02:32N 44°04' E 039°05'0 0.0
2015-May-18 01:31N 44°04' E 039°05'0 0.0
2015-May-18 00:31N 44°04' E 039°05'0 0.0
2015-May-17 23:31N 44°04' E 039°05'0 0.0
2015-May-17 22:33N 44°04' E 039°05'0 0.0
2015-May-17 21:33N 44°04' E 039°05'0 0.0
2015-May-17 20:32N 44°04' E 039°05'0 0.0
2015-May-17 19:32N 44°04' E 039°05'0 0.0
2015-May-17 18:31N 44°04' E 039°05'0 0.1
2015-May-17 17:31N 44°04' E 039°05'0 0.1
2015-May-17 16:31N 44°04' E 039°05'0 0.0
2015-May-17 15:33N 44°04' E 039°05'0 0.0
2015-May-17 14:33N 44°04' E 039°05'0 0.0
2015-May-17 13:32N 44°04' E 039°05'0 0.0
2015-May-17 12:32N 44°04' E 039°05'0 0.0
2015-May-17 11:31N 44°04' E 039°05'0 0.0
2015-May-17 10:31N 44°04' E 039°05'0 0.0
2015-May-17 09:33N 44°04' E 039°05'0 0.0
2015-May-17 08:33N 44°04' E 039°05'0 0.0
2015-May-17 07:32N 44°04' E 039°05'0 0.0
2015-May-17 06:32N 44°04' E 039°05'0 0.0
2015-May-17 05:31N 44°04' E 039°05'0 0.0
2015-May-17 04:31N 44°04' E 039°05'0 0.0
2015-May-17 03:31N 44°04' E 039°05'0 0.0
2015-May-17 02:33N 44°04' E 039°05'0 0.0
2015-May-17 01:33N 44°04' E 039°05'0 0.0
2015-May-17 00:33N 44°04' E 039°05'0 0.0
2015-May-16 23:33N 44°04' E 039°05'0 0.0
2015-May-16 22:34N 44°04' E 039°05'0 0.0
2015-May-16 21:34N 44°04' E 039°05'0 0.0
2015-May-16 20:33N 44°04' E 039°05'0 0.0
2015-May-16 19:33N 44°04' E 039°05'0 0.0
2015-May-16 18:33N 44°04' E 039°05'2 2.1
2015-May-16 17:33N 44°02' E 039°03'1211.9
2015-May-16 16:33N 43°57' E 038°48'  
Track history (hours):
 
Tides and Currents Weather Stations Pressure Air Temp Water Temp Dewpoint Dewpoint Depression Visibility Wind Speed Wind Dir Waves Ship Positions

Dost 1

Last reported at 2015-May-25 11:27 UTC. Time now 2015-May-25 13:30 UTC.
Position N 31°23' E 030°05'.

Length 115 m; draft 6.7 m.

Type: Cargo ship. MMSI: 271000303.

Date/timePositionNaut miles runAvg speedWind from/ knotsBaromVisibWave heightAir tempDewpointWater temp
2015-May-25 11:27N 31°23' E 030°05'0 0.0
2015-May-25 09:29N 31°23' E 030°05'0 0.0
2015-May-25 08:29N 31°23' E 030°05'0 0.0
2015-May-25 07:33N 31°23' E 030°05'0 0.0
2015-May-25 03:18N 31°23' E 030°05'0 0.0
2015-May-25 02:33N 31°23' E 030°05'147 7.7
2015-May-24 07:24N 33°36' E 028°49'14611.3
2015-May-23 18:32N 35°47' E 027°32'1311.3
2015-May-23 17:23N 35°59' E 027°26'2210.8
2015-May-23 15:21N 36°17' E 027°11'911.2
2015-May-23 14:33N 36°22' E 027°01'1111.0
2015-May-23 13:33N 36°28' E 026°50'2311.3
2015-May-23 11:33N 36°44' E 026°30'1111.5
2015-May-23 10:33N 36°52' E 026°20'1311.3
2015-May-23 09:26N 37°02' E 026°10'1311.3
2015-May-23 08:16N 37°15' E 026°06'811.6
2015-May-23 07:33N 37°22' E 026°02'1111.3
2015-May-23 06:33N 37°30' E 025°52'1111.0
2015-May-23 05:32N 37°41' E 025°49'274 6.2
2015-May-21 09:29N 41°22' E 029°20'1010.4
2015-May-21 08:33N 41°24' E 029°32'22410.4
2015-May-20 11:06N 42°10' E 034°26'712.2
2015-May-20 10:33N 42°11' E 034°35'1312.0
2015-May-20 09:31N 42°16' E 034°50'1511.7
2015-May-20 08:14N 42°23' E 035°08'811.6
2015-May-20 07:31N 42°28' E 035°17'2311.6
2015-May-20 05:33N 42°39' E 035°44'15111.7
2015-May-19 16:33N 43°56' E 038°43'1110.7
2015-May-19 15:33N 44°01' E 038°56'8 7.3
2015-May-19 14:31N 44°06' E 039°04'0 0.0
2015-May-19 13:31N 44°06' E 039°04'0 0.0
2015-May-19 12:31N 44°06' E 039°04'0 0.0
2015-May-19 11:33N 44°06' E 039°04'0 0.0
2015-May-19 10:33N 44°06' E 039°04'0 0.0
2015-May-19 09:29N 44°06' E 039°04'0 0.0
2015-May-19 08:32N 44°06' E 039°04'0 0.0
2015-May-19 07:31N 44°06' E 039°04'0 0.0
2015-May-19 06:31N 44°06' E 039°04'0 0.0
2015-May-19 05:31N 44°06' E 039°04'0 0.0
2015-May-19 04:30N 44°06' E 039°04'0 0.0
2015-May-19 03:33N 44°06' E 039°04'0 0.0
2015-May-19 02:32N 44°06' E 039°04'0 0.0
2015-May-19 01:32N 44°06' E 039°04'0 0.0
2015-May-19 00:31N 44°06' E 039°04'0 0.0
2015-May-18 23:31N 44°06' E 039°04'0 0.0
2015-May-18 22:31N 44°06' E 039°04'0 0.0
2015-May-18 21:33N 44°06' E 039°04'0 0.0
2015-May-18 20:33N 44°06' E 039°04'0 0.0
2015-May-18 19:32N 44°06' E 039°04'0 0.0
2015-May-18 18:32N 44°06' E 039°04'0 0.0
2015-May-18 17:31N 44°06' E 039°04'0 0.0
2015-May-18 16:31N 44°06' E 039°04'0 0.0
2015-May-18 15:31N 44°06' E 039°04'0 0.0
2015-May-18 14:33N 44°06' E 039°04'0 0.0
2015-May-18 13:30N 44°06' E 039°04'0 0.2
2015-May-18 12:34N 44°05' E 039°04'2 2.0
2015-May-18 11:33N 44°04' E 039°05'0 0.1
2015-May-18 10:32N 44°04' E 039°05'0 0.0
2015-May-18 09:32N 44°04' E 039°05'0 0.0
2015-May-18 08:32N 44°04' E 039°05'0 0.0
2015-May-18 07:31N 44°04' E 039°05'0 0.0
2015-May-18 06:31N 44°04' E 039°05'0 0.0
2015-May-18 05:33N 44°04' E 039°05'0 0.0
2015-May-18 04:33N 44°04' E 039°05'0 0.0
2015-May-18 03:32N 44°04' E 039°05'0 0.0
2015-May-18 02:32N 44°04' E 039°05'0 0.0
2015-May-18 01:31N 44°04' E 039°05'0 0.0
2015-May-18 00:31N 44°04' E 039°05'0 0.0
2015-May-17 23:31N 44°04' E 039°05'0 0.0
2015-May-17 22:33N 44°04' E 039°05'0 0.0
2015-May-17 21:33N 44°04' E 039°05'0 0.0
2015-May-17 20:32N 44°04' E 039°05'0 0.0
2015-May-17 19:32N 44°04' E 039°05'0 0.0
2015-May-17 18:31N 44°04' E 039°05'0 0.1
2015-May-17 17:31N 44°04' E 039°05'0 0.1
2015-May-17 16:31N 44°04' E 039°05'0 0.0
2015-May-17 15:33N 44°04' E 039°05'0 0.0
2015-May-17 14:33N 44°04' E 039°05'0 0.0
2015-May-17 13:32N 44°04' E 039°05'0 0.0
2015-May-17 12:32N 44°04' E 039°05'0 0.0
2015-May-17 11:31N 44°04' E 039°05'0 0.0
2015-May-17 10:31N 44°04' E 039°05'0 0.0
2015-May-17 09:33N 44°04' E 039°05'0 0.0
2015-May-17 08:33N 44°04' E 039°05'0 0.0
2015-May-17 07:32N 44°04' E 039°05'0 0.0
2015-May-17 06:32N 44°04' E 039°05'0 0.0
2015-May-17 05:31N 44°04' E 039°05'0 0.0
2015-May-17 04:31N 44°04' E 039°05'0 0.0
2015-May-17 03:31N 44°04' E 039°05'0 0.0
2015-May-17 02:33N 44°04' E 039°05'0 0.0
2015-May-17 01:33N 44°04' E 039°05'0 0.0
2015-May-17 00:33N 44°04' E 039°05'0 0.0
2015-May-16 23:33N 44°04' E 039°05'0 0.0
2015-May-16 22:34N 44°04' E 039°05'0 0.0
2015-May-16 21:34N 44°04' E 039°05'0 0.0
2015-May-16 20:33N 44°04' E 039°05'0 0.0
2015-May-16 19:33N 44°04' E 039°05'0 0.0
2015-May-16 18:33N 44°04' E 039°05'2 2.1
2015-May-16 17:33N 44°02' E 039°03'1211.9
2015-May-16 16:33N 43°57' E 038°48'  

Dump ship's entire track history